createdAt,value
2022-09-11T00:00:04.868Z,16.6
2022-09-11T00:04:47.976Z,16.6
2022-09-11T00:12:40.222Z,16.5
2022-09-11T00:13:49.394Z,16.6
2022-09-11T00:18:32.227Z,16.7
2022-09-11T00:23:54.777Z,16.7
2022-09-11T00:29:07.386Z,16.7
2022-09-11T00:33:37.379Z,16.7
2022-09-11T00:38:50.139Z,16.6
2022-09-11T00:43:20.122Z,16.6
2022-09-11T00:48:52.978Z,16.7
2022-09-11T00:52:26.467Z,16.7
2022-09-11T00:57:09.122Z,16.8
2022-09-11T01:04:29.835Z,16.9
2022-09-11T01:07:10.810Z,16.8
2022-09-11T01:10:04.366Z,16.9
2022-09-11T01:16:26.600Z,16.9
2022-09-11T01:19:49.953Z,16.9
2022-09-11T01:25:07.770Z,16.7
2022-09-11T01:30:23.255Z,16.6
2022-09-11T01:35:43.792Z,16.5
2022-09-11T01:40:17.836Z,16.5
2022-09-11T01:45:03.463Z,16.5
2022-09-11T01:49:46.342Z,15.9
2022-09-11T01:50:55.479Z,16.1
2022-09-11T01:55:23.246Z,16.1
2022-09-11T02:00:08.825Z,16.1
2022-09-11T02:04:52.117Z,16.2
2022-09-11T02:09:49.737Z,16.3
2022-09-11T02:14:19.842Z,16.3
2022-09-11T02:20:00.378Z,16.4
2022-09-11T02:23:20.558Z,16.4
2022-09-11T02:26:13.960Z,16.4
2022-09-11T02:32:30.870Z,16.3
2022-09-11T02:37:43.438Z,16.3
2022-09-11T02:42:17.889Z,16.3
2022-09-11T02:43:29.957Z,16.3
2022-09-11T02:44:41.926Z,16.3
2022-09-11T02:47:35.933Z,16.3
2022-09-11T02:48:47.982Z,16.1
2022-09-11T02:50:02.189Z,16.2
2022-09-11T02:52:55.641Z,16.1
2022-09-11T02:58:33.438Z,16
2022-09-11T03:04:08.902Z,15.8
2022-09-11T03:13:02.773Z,15.9
2022-09-11T03:14:06.917Z,15.9
2022-09-11T03:22:14.110Z,15.5
2022-09-11T03:26:56.909Z,15.5
2022-09-11T03:31:39.679Z,15.9
2022-09-11T03:36:22.126Z,16.1
2022-09-11T03:44:14.231Z,16.2
2022-09-11T03:45:23.567Z,16.2
2022-09-11T03:50:36.193Z,15.8
2022-09-11T03:55:06.051Z,15.8
2022-09-11T04:00:19.141Z,16.1
2022-09-11T04:04:51.421Z,16.1
2022-09-11T04:09:34.598Z,15.9
2022-09-11T04:14:47.446Z,16.1
2022-09-11T04:19:17.462Z,16.1
2022-09-11T04:24:53.140Z,16.1
2022-09-11T04:33:29.297Z,16.5
2022-09-11T04:34:33.445Z,16.5
2022-09-11T04:38:01.759Z,16.5
2022-09-11T04:43:14.587Z,16.6
2022-09-11T04:44:18.641Z,16.5
2022-09-11T04:52:25.134Z,16.6
2022-09-11T04:57:37.733Z,16.5
2022-09-11T04:58:41.822Z,16.5
2022-09-11T05:07:19.776Z,16.7
2022-09-11T05:08:23.865Z,16.8
2022-09-11T05:11:48.857Z,16.8
2022-09-11T05:16:46.419Z,16.8
2022-09-11T05:17:50.513Z,16.7
2022-09-11T05:29:09.045Z,16.6
2022-09-11T05:30:18.052Z,16.7
2022-09-11T05:35:32.430Z,16.4
2022-09-11T05:40:00.751Z,16.4
2022-09-11T05:44:43.582Z,16.6
2022-09-11T05:50:16.220Z,16.8
2022-09-11T05:53:49.725Z,16.8
2022-09-11T05:58:32.920Z,16.9
2022-09-11T06:25:51.123Z,17
2022-09-11T06:30:35.750Z,16.8
2022-09-11T06:31:40.109Z,16.8
2022-09-11T06:32:45.113Z,16.6
2022-09-11T06:33:52.054Z,16.6
2022-09-11T06:34:56.176Z,16.7
2022-09-11T06:36:02.101Z,16.6
2022-09-11T06:37:11.434Z,16.7
2022-09-11T06:38:15.657Z,16.8
2022-09-11T06:39:20.153Z,16.5
2022-09-11T06:40:24.338Z,16.8
2022-09-11T06:41:28.584Z,16.7
2022-09-11T06:42:32.653Z,16.8
2022-09-11T06:43:36.900Z,16.6
2022-09-11T06:44:41.047Z,16.6
2022-09-11T06:45:45.330Z,16.8
2022-09-11T06:46:49.884Z,16.6
2022-09-11T06:47:54.148Z,16.8
2022-09-11T06:48:58.408Z,16.6
2022-09-11T06:50:02.740Z,16.6
2022-09-11T06:51:07.116Z,16.6
2022-09-11T06:52:11.518Z,16.4
2022-09-11T06:53:15.880Z,16.5
2022-09-11T06:54:20.277Z,16.3
2022-09-11T06:55:24.580Z,16.5
2022-09-11T06:56:28.844Z,16.6
2022-09-11T06:57:33.113Z,16.6
2022-09-11T06:58:37.480Z,16.6
2022-09-11T06:59:42.036Z,16.6
2022-09-11T07:00:46.908Z,16.6
2022-09-11T07:01:51.874Z,16.5
2022-09-11T07:02:56.539Z,16.6
2022-09-11T07:04:00.905Z,16.7
2022-09-11T07:05:05.412Z,16.7
2022-09-11T07:06:10.805Z,16.8
2022-09-11T07:07:15.477Z,16.9
2022-09-11T07:08:24.824Z,16.7
2022-09-11T07:09:25.209Z,16.6
2022-09-11T07:10:29.564Z,16.6
2022-09-11T07:11:33.784Z,16.6
2022-09-11T07:12:38.242Z,16.8
2022-09-11T07:13:42.872Z,17
2022-09-11T07:14:47.149Z,16.7
2022-09-11T07:15:51.561Z,16.9
2022-09-11T07:17:01.337Z,17.1
2022-09-11T07:18:05.692Z,16.9
2022-09-11T07:19:10.135Z,16.9
2022-09-11T07:20:14.425Z,16.7
2022-09-11T07:21:18.944Z,16.8
2022-09-11T07:22:23.161Z,16.8
2022-09-11T07:23:27.325Z,16.4
2022-09-11T07:24:31.630Z,16.6
2022-09-11T07:25:35.937Z,16.7
2022-09-11T07:26:40.302Z,16.7
2022-09-11T07:27:44.786Z,16.6
2022-09-11T07:28:49.153Z,16.6
2022-09-11T07:29:53.831Z,16.4
2022-09-11T07:30:58.198Z,16.5
2022-09-11T07:32:05.144Z,16.7
2022-09-11T07:33:09.368Z,16.8
2022-09-11T07:34:13.648Z,16.8
2022-09-11T07:35:17.968Z,16.9
2022-09-11T07:36:22.304Z,16.8
2022-09-11T07:37:26.664Z,16.9
2022-09-11T07:38:32.560Z,16.8
2022-09-11T07:39:37.607Z,16.8
2022-09-11T07:40:41.816Z,16.9
2022-09-11T07:41:46.205Z,16.9
2022-09-11T07:42:50.516Z,17
2022-09-11T07:43:54.802Z,17.1
2022-09-11T07:44:59.124Z,17.2
2022-09-11T07:46:03.477Z,16.7
2022-09-11T07:47:07.616Z,16.6
2022-09-11T07:48:11.992Z,16.7
2022-09-11T07:49:16.345Z,16.7
2022-09-11T07:50:20.688Z,16.7
2022-09-11T07:51:24.977Z,16.6
2022-09-11T07:52:29.228Z,16.7
2022-09-11T07:53:33.514Z,16.5
2022-09-11T07:54:43.604Z,16.7
2022-09-11T07:55:47.909Z,16.8
2022-09-11T07:56:52.333Z,17
2022-09-11T07:57:56.723Z,17
2022-09-11T07:59:00.960Z,17
2022-09-11T08:00:05.368Z,17
2022-09-11T08:01:09.934Z,17.2
2022-09-11T08:02:14.215Z,17.2
2022-09-11T08:03:18.360Z,17.3
2022-09-11T08:04:22.636Z,17.5
2022-09-11T08:05:27.088Z,17.2
2022-09-11T08:06:31.328Z,17
2022-09-11T08:07:35.701Z,17.1
2022-09-11T08:08:40.141Z,17.2
2022-09-11T08:09:44.376Z,17.4
2022-09-11T08:10:48.777Z,17.3
2022-09-11T08:11:53.157Z,17.3
2022-09-11T08:12:59.725Z,17.3
2022-09-11T08:14:01.729Z,17.3
2022-09-11T08:15:06.012Z,17.2
2022-09-11T08:16:10.593Z,17.3
2022-09-11T08:17:14.676Z,17.2
2022-09-11T08:18:19.004Z,17.2
2022-09-11T08:19:23.344Z,17.3
2022-09-11T08:20:27.660Z,17.4
2022-09-11T08:21:31.913Z,17
2022-09-11T08:22:36.248Z,17
2022-09-11T08:23:40.890Z,16.9
2022-09-11T08:24:45.181Z,17.3
2022-09-11T08:25:49.456Z,17.3
2022-09-11T08:26:53.809Z,17.1
2022-09-11T08:27:58.135Z,17.1
2022-09-11T08:29:02.608Z,17.1
2022-09-11T08:30:06.993Z,17.3
2022-09-11T08:31:11.752Z,17.4
2022-09-11T08:32:15.988Z,17.5
2022-09-11T08:33:20.154Z,17.7
2022-09-11T08:34:24.368Z,17.4
2022-09-11T08:35:28.688Z,17.5
2022-09-11T08:36:33.016Z,17.6
2022-09-11T08:37:37.277Z,17.5
2022-09-11T08:38:41.759Z,17.5
2022-09-11T08:39:46.101Z,17.3
2022-09-11T08:40:50.376Z,17.5
2022-09-11T08:41:54.839Z,17.3
2022-09-11T08:42:59.044Z,17.5
2022-09-11T08:44:03.368Z,17.7
2022-09-11T08:45:10.568Z,17.4
2022-09-11T08:46:14.749Z,17.3
2022-09-11T08:47:19.721Z,17.3
2022-09-11T08:48:26.612Z,17.3
2022-09-11T08:49:33.688Z,17.4
2022-09-11T08:50:38.233Z,17.5
2022-09-11T08:51:43.032Z,17.4
2022-09-11T08:52:48.392Z,17.7
2022-09-11T08:53:53.117Z,17.5
2022-09-11T08:54:59.024Z,17.5
2022-09-11T08:56:04.504Z,17.7
2022-09-11T08:57:16.489Z,17.5
2022-09-11T08:58:21.284Z,17.3
2022-09-11T08:59:32.576Z,17.4
2022-09-11T09:00:42.398Z,17.5
2022-09-11T09:01:52.575Z,17.7
2022-09-11T09:03:04.508Z,17.7
2022-09-11T09:04:18.884Z,17.9
2022-09-11T09:05:33.368Z,18
2022-09-11T09:06:46.263Z,18
2022-09-11T09:08:00.872Z,17.7
2022-09-11T09:09:12.801Z,17.6
2022-09-11T09:11:38.368Z,17.5
2022-09-11T09:12:42.652Z,17.5
2022-09-11T09:13:49.704Z,17.5
2022-09-11T09:15:04.257Z,17.2
2022-09-11T09:16:13.613Z,17.5
2022-09-11T09:17:28.850Z,17.2
2022-09-11T09:18:38.313Z,17.2
2022-09-11T09:19:42.668Z,17.3
2022-09-11T09:20:50.076Z,17.6
2022-09-11T09:22:04.516Z,17.6
2022-09-11T09:23:15.050Z,17.4
2022-09-11T09:24:25.977Z,17.3
2022-09-11T09:25:30.411Z,17.5
2022-09-11T09:26:38.284Z,17.7
2022-09-11T09:27:39.016Z,17.7
2022-09-11T09:28:45.840Z,17.5
2022-09-11T09:29:50.400Z,17.8
2022-09-11T09:30:55.095Z,17.5
2022-09-11T09:31:59.311Z,17.5
2022-09-11T09:33:10.283Z,17.9
2022-09-11T09:34:21.803Z,18.1
2022-09-11T09:35:26.027Z,18.2
2022-09-11T09:36:30.276Z,18.2
2022-09-11T09:37:36.088Z,18
2022-09-11T09:38:40.652Z,18.3
2022-09-11T09:39:45.068Z,18.3
2022-09-11T09:40:49.453Z,18.2
2022-09-11T09:42:05.468Z,18.1
2022-09-11T09:43:16.537Z,18.3
2022-09-11T09:44:29.652Z,18.5
2022-09-11T09:45:41.962Z,18.5
2022-09-11T09:46:51.496Z,18.4
2022-09-11T09:47:56.698Z,18.2
2022-09-11T09:49:00.901Z,18.2
2022-09-11T09:50:05.276Z,17.9
2022-09-11T09:51:09.596Z,18.1
2022-09-11T09:52:13.976Z,18.2
2022-09-11T09:53:21.408Z,18.4
2022-09-11T09:54:28.764Z,18
2022-09-11T09:55:33.000Z,18
2022-09-11T09:56:37.468Z,18.2
2022-09-11T09:57:41.564Z,18.3
2022-09-11T09:58:45.889Z,18.2
2022-09-11T10:00:00.279Z,18.4
2022-09-11T10:01:04.763Z,18.5
2022-09-11T10:02:19.069Z,18.6
2022-09-11T10:03:28.333Z,18.6
2022-09-11T10:04:32.528Z,18.4
2022-09-11T10:05:36.764Z,18.4
2022-09-11T10:06:41.052Z,18.7
2022-09-11T10:07:45.527Z,18.8
2022-09-11T10:08:52.904Z,18.7
2022-09-11T10:09:57.387Z,18.2
2022-09-11T10:11:01.677Z,18.3
2022-09-11T10:12:09.024Z,18.4
2022-09-11T10:13:20.209Z,18.7
2022-09-11T10:14:34.489Z,18.7
2022-09-11T10:15:24.884Z,18.5
2022-09-11T10:16:29.051Z,18.2
2022-09-11T10:17:33.315Z,18.5
2022-09-11T10:18:37.675Z,18.5
2022-09-11T10:19:41.944Z,18.4
2022-09-11T10:20:46.224Z,18
2022-09-11T10:21:50.498Z,18.1
2022-09-11T10:22:54.783Z,18.3
2022-09-11T10:23:59.088Z,18.3
2022-09-11T10:25:03.568Z,18.3
2022-09-11T10:26:15.346Z,18.3
2022-09-11T10:27:21.744Z,18.6
2022-09-11T10:28:23.951Z,18.6
2022-09-11T10:29:28.284Z,18.6
2022-09-11T10:30:32.580Z,18.4
2022-09-11T10:31:39.593Z,18.5
2022-09-11T10:32:48.915Z,18.7
2022-09-11T10:33:53.424Z,18.6
2022-09-11T10:34:57.753Z,18.5
2022-09-11T10:36:02.088Z,18.4
2022-09-11T10:37:06.480Z,18.5
2022-09-11T10:38:13.703Z,18.4
2022-09-11T10:39:18.029Z,18.4
2022-09-11T10:40:22.323Z,18.6
2022-09-11T10:41:26.923Z,18.7
2022-09-11T10:42:31.136Z,18.8
2022-09-11T10:43:35.401Z,19
2022-09-11T10:44:44.816Z,18.9
2022-09-11T10:45:49.123Z,19.1
2022-09-11T10:47:03.524Z,19.1
2022-09-11T10:48:17.988Z,19.3
2022-09-11T10:49:22.336Z,19.1
2022-09-11T10:50:26.559Z,19
2022-09-11T10:51:30.756Z,19
2022-09-11T10:52:38.020Z,19.1
2022-09-11T10:53:47.790Z,19.2
2022-09-11T10:54:57.224Z,19.4
2022-09-11T10:57:07.987Z,19.4
2022-09-11T10:58:12.120Z,19.3
2022-09-11T10:59:18.876Z,19.2
2022-09-11T11:00:23.152Z,19.1
2022-09-11T11:01:30.518Z,18.9
2022-09-11T11:02:35.045Z,19.2
2022-09-11T11:03:39.216Z,19.3
2022-09-11T11:04:43.666Z,19.3
2022-09-11T11:05:47.915Z,19.2
2022-09-11T11:07:02.379Z,19.3
2022-09-11T11:08:13.048Z,19.3
2022-09-11T11:09:20.312Z,19.2
2022-09-11T11:10:32.532Z,19.1
2022-09-11T11:11:44.557Z,19.2
2022-09-11T11:14:10.367Z,19.3
2022-09-11T11:15:19.832Z,19.1
2022-09-11T11:16:26.834Z,19.3
2022-09-11T11:17:33.938Z,19.2
2022-09-11T11:18:38.146Z,19.6
2022-09-11T11:19:47.538Z,19.6
2022-09-11T11:20:58.007Z,19.6
2022-09-11T11:22:07.515Z,19.4
2022-09-11T11:23:21.890Z,19.6
2022-09-11T11:24:31.198Z,19.6
2022-09-11T11:25:43.690Z,19.6
2022-09-11T11:26:53.062Z,19.7
2022-09-11T11:27:57.446Z,19.9
2022-09-11T11:29:11.826Z,20
2022-09-11T11:31:22.442Z,20.1
2022-09-11T11:32:29.402Z,20
2022-09-11T11:33:36.386Z,20.2
2022-09-11T11:34:48.436Z,19.7
2022-09-11T11:36:02.764Z,19.8
2022-09-11T11:37:12.961Z,19.5
2022-09-11T11:38:20.167Z,19.7
2022-09-11T11:39:29.445Z,19.5
2022-09-11T11:40:34.067Z,19.6
2022-09-11T11:41:41.850Z,19.6
2022-09-11T11:42:46.029Z,19.9
2022-09-11T11:43:55.453Z,19.9
2022-09-11T11:44:59.804Z,19.6
2022-09-11T11:46:07.877Z,19.6
2022-09-11T11:47:17.150Z,19.7
2022-09-11T11:48:21.786Z,19.8
2022-09-11T11:49:29.086Z,19.9
2022-09-11T11:51:50.166Z,19.9
2022-09-11T11:53:04.478Z,20
2022-09-11T11:54:13.694Z,20.3
2022-09-11T11:58:56.851Z,20.4
2022-09-11T12:00:06.285Z,20.4
2022-09-11T12:01:15.874Z,20.3
2022-09-11T12:02:23.062Z,20.3
2022-09-11T12:03:30.109Z,20.4
2022-09-11T12:04:40.314Z,20.3
2022-09-11T12:05:56.611Z,20.1
2022-09-11T12:07:01.149Z,20.2
2022-09-11T12:08:05.362Z,20.2
2022-09-11T12:09:12.542Z,20.1
2022-09-11T12:10:17.030Z,20.2
2022-09-11T12:11:26.853Z,20
2022-09-11T12:12:31.378Z,19.8
2022-09-11T12:13:35.625Z,20
2022-09-11T12:14:39.910Z,19.9
2022-09-11T12:15:49.177Z,19.8
2022-09-11T12:16:59.466Z,19.8
2022-09-11T12:18:13.915Z,19.8
2022-09-11T12:19:23.545Z,19.9
2022-09-11T12:20:28.199Z,20
2022-09-11T12:21:36.298Z,20
2022-09-11T12:22:40.611Z,20.2
2022-09-11T12:24:48.606Z,20.1
2022-09-11T12:25:52.754Z,20.1
2022-09-11T12:27:11.149Z,20.1
2022-09-11T12:28:22.190Z,19.9
2022-09-11T12:29:26.479Z,19.7
2022-09-11T12:30:30.817Z,19.6
2022-09-11T12:31:35.243Z,19.5
2022-09-11T12:32:49.687Z,19.6
2022-09-11T12:33:54.432Z,20
2022-09-11T12:34:58.870Z,19.9
2022-09-11T12:36:03.167Z,20
2022-09-11T12:37:12.801Z,19.9
2022-09-11T12:38:24.771Z,19.9
2022-09-11T12:39:39.386Z,20
2022-09-11T12:40:49.621Z,20
2022-09-11T12:41:58.988Z,20
2022-09-11T12:43:13.506Z,19.8
2022-09-11T12:44:17.862Z,19.8
2022-09-11T12:45:32.667Z,19.8
2022-09-11T12:46:37.426Z,19.9
2022-09-11T12:47:44.594Z,19.7
2022-09-11T12:49:05.891Z,19.7
2022-09-11T12:49:54.866Z,19.6
2022-09-11T12:51:06.889Z,19.7
2022-09-11T12:52:21.254Z,19.6
2022-09-11T12:53:26.297Z,19.5
2022-09-11T12:54:33.717Z,19.7
2022-09-11T12:55:38.946Z,19.6
2022-09-11T12:56:51.469Z,19.5
2022-09-11T12:58:01.590Z,19.5
2022-09-11T12:59:16.215Z,19.5
2022-09-11T13:00:26.443Z,19.3
2022-09-11T13:01:39.711Z,19.2
2022-09-11T13:02:44.166Z,19.4
2022-09-11T13:03:49.155Z,19.4
2022-09-11T13:04:58.686Z,19.3
2022-09-11T13:06:06.349Z,19.2
2022-09-11T13:07:10.635Z,19.3
2022-09-11T13:08:14.925Z,19.3
2022-09-11T13:09:19.702Z,19.2
2022-09-11T13:10:29.038Z,19.3
2022-09-11T13:11:33.390Z,19.5
2022-09-11T13:12:42.674Z,19.6
2022-09-11T13:13:51.051Z,19.6
2022-09-11T13:14:55.894Z,19.7
2022-09-11T13:16:00.263Z,19.5
2022-09-11T13:17:14.742Z,19.4
2022-09-11T13:18:24.086Z,19.7
2022-09-11T13:19:31.290Z,19.6
2022-09-11T13:20:35.541Z,19.3
2022-09-11T13:21:40.151Z,19.3
2022-09-11T13:22:47.590Z,19.3
2022-09-11T13:23:48.878Z,19.2
2022-09-11T13:24:53.437Z,19.2
2022-09-11T13:26:07.991Z,19.2
2022-09-11T13:27:12.994Z,19.3
2022-09-11T13:29:26.901Z,19.3
2022-09-11T13:30:31.393Z,19.4
2022-09-11T13:31:35.846Z,19.4
2022-09-11T13:32:40.134Z,19.4
2022-09-11T13:33:44.611Z,19.3
2022-09-11T13:34:48.810Z,19.3
2022-09-11T13:35:56.050Z,19.2
2022-09-11T13:37:02.214Z,19.2
2022-09-11T13:38:09.341Z,19.1
2022-09-11T13:39:13.833Z,19.1
2022-09-11T13:40:18.427Z,19.1
2022-09-11T13:41:24.469Z,19
2022-09-11T13:42:31.450Z,19.1
2022-09-11T13:43:35.801Z,18.9
2022-09-11T13:44:42.809Z,19.2
2022-09-11T13:45:47.205Z,19.3
2022-09-11T13:46:56.498Z,19.5
2022-09-11T13:48:01.148Z,19.3
2022-09-11T13:49:05.441Z,19.4
2022-09-11T13:50:09.663Z,19.7
2022-09-11T13:51:14.554Z,19.8
2022-09-11T13:52:18.865Z,19.9
2022-09-11T13:53:23.105Z,19.5
2022-09-11T13:54:27.529Z,19.3
2022-09-11T13:55:31.950Z,19.4
2022-09-11T13:56:36.264Z,19.4
2022-09-11T13:57:40.384Z,19.6
2022-09-11T13:58:53.421Z,19.5
2022-09-11T13:59:54.251Z,19.4
2022-09-11T14:01:01.473Z,19.4
2022-09-11T14:02:13.835Z,19.7
2022-09-11T14:03:23.169Z,19.6
2022-09-11T14:04:30.329Z,19.6
2022-09-11T14:05:34.637Z,19.7
2022-09-11T14:06:38.997Z,19.8
2022-09-11T14:07:43.333Z,19.7
2022-09-11T14:08:57.840Z,19.8
2022-09-11T14:10:02.137Z,19.6
2022-09-11T14:11:10.576Z,19.8
2022-09-11T14:12:11.111Z,19.8
2022-09-11T14:13:15.361Z,19.9
2022-09-11T14:14:24.530Z,19.9
2022-09-11T14:15:28.855Z,19.6
2022-09-11T14:16:35.965Z,19.8
2022-09-11T14:17:40.408Z,19.6
2022-09-11T14:18:44.713Z,19.6
2022-09-11T14:19:49.070Z,19.5
2022-09-11T14:20:53.577Z,19.5
2022-09-11T14:21:57.850Z,19.7
2022-09-11T14:23:02.302Z,19.6
2022-09-11T14:24:06.826Z,19.5
2022-09-11T14:25:21.301Z,19.5
2022-09-11T14:26:25.526Z,19.7
2022-09-11T14:27:32.676Z,19.8
2022-09-11T14:28:39.457Z,19.7
2022-09-11T14:29:44.093Z,19.7
2022-09-11T14:30:48.549Z,19.6
2022-09-11T14:31:53.026Z,19.6
2022-09-11T14:33:07.661Z,19.8
2022-09-11T14:34:17.071Z,19.7
2022-09-11T14:35:26.609Z,19.8
2022-09-11T14:36:30.905Z,19.7
2022-09-11T14:37:35.529Z,19.4
2022-09-11T14:38:39.921Z,19.3
2022-09-11T14:40:50.462Z,19.6
2022-09-11T14:41:54.857Z,19.5
2022-09-11T14:42:59.440Z,19.8
2022-09-11T14:44:03.674Z,19.7
2022-09-11T14:45:07.993Z,19.5
2022-09-11T14:47:16.981Z,19.4
2022-09-11T14:48:22.005Z,19.3
2022-09-11T14:49:27.093Z,19.1
2022-09-11T14:50:32.289Z,19.2
2022-09-11T14:51:36.625Z,19.3
2022-09-11T14:52:40.946Z,19.3
2022-09-11T14:53:45.223Z,19.2
2022-09-11T14:54:49.562Z,19
2022-09-11T14:55:53.968Z,19.3
2022-09-11T14:56:59.425Z,18.9
2022-09-11T14:59:07.209Z,19.1
2022-09-11T15:00:11.604Z,19.3
2022-09-11T15:01:16.287Z,19.2
2022-09-11T15:02:20.661Z,19.1
2022-09-11T15:03:25.219Z,19
2022-09-11T15:04:29.469Z,19.1
2022-09-11T15:05:33.756Z,19.2
2022-09-11T15:06:37.885Z,19.3
2022-09-11T15:07:42.440Z,19.2
2022-09-11T15:08:46.833Z,19.1
2022-09-11T15:09:51.184Z,19.1
2022-09-11T15:10:55.449Z,19
2022-09-11T15:11:59.793Z,18.9
2022-09-11T15:13:07.005Z,19.1
2022-09-11T15:14:20.614Z,19.2
2022-09-11T15:15:15.710Z,19
2022-09-11T15:16:20.335Z,18.9
2022-09-11T15:17:24.861Z,19.1
2022-09-11T15:18:29.209Z,19.2
2022-09-11T15:19:33.709Z,19.2
2022-09-11T15:20:38.849Z,19.4
2022-09-11T15:21:43.149Z,18.9
2022-09-11T15:22:47.454Z,18.5
2022-09-11T15:23:51.921Z,18.3
2022-09-11T15:24:56.404Z,18
2022-09-11T15:26:00.837Z,17.8
2022-09-11T15:27:05.334Z,17.5
2022-09-11T15:28:09.689Z,17.8
2022-09-11T15:29:18.960Z,18.1
2022-09-11T15:30:23.746Z,18.2
2022-09-11T15:31:28.965Z,18.2
2022-09-11T15:32:32.952Z,18.2
2022-09-11T15:33:37.461Z,18.3
2022-09-11T15:34:41.802Z,18.3
2022-09-11T15:35:46.048Z,18.4
2022-09-11T15:36:50.633Z,18.3
2022-09-11T15:37:55.786Z,18.3
2022-09-11T15:39:00.300Z,18.3
2022-09-11T15:40:07.357Z,18.3
2022-09-11T15:41:11.734Z,18.2
2022-09-11T15:42:16.178Z,18.4
2022-09-11T15:43:20.533Z,18.3
2022-09-11T15:44:24.832Z,18.2
2022-09-11T15:45:29.447Z,17.9
2022-09-11T15:46:33.652Z,17.7
2022-09-11T15:47:37.937Z,17.9
2022-09-11T15:48:42.277Z,18
2022-09-11T15:49:46.600Z,18.2
2022-09-11T15:50:50.891Z,18
2022-09-11T15:52:00.516Z,17.7
2022-09-11T15:53:05.421Z,17.7
2022-09-11T15:54:10.060Z,17.8
2022-09-11T15:55:15.097Z,17.7
2022-09-11T15:56:22.705Z,17.7
2022-09-11T15:57:24.193Z,17.6
2022-09-11T15:58:28.429Z,17.6
2022-09-11T15:59:32.868Z,17.3
2022-09-11T16:00:37.187Z,17.1
2022-09-11T16:01:41.516Z,17.4
2022-09-11T16:02:46.029Z,17.5
2022-09-11T16:03:51.020Z,17.6
2022-09-11T16:04:58.017Z,17.5
2022-09-11T16:06:02.348Z,17.2
2022-09-11T16:07:06.841Z,17.2
2022-09-11T16:08:11.205Z,17.1
2022-09-11T16:09:16.030Z,17.3
2022-09-11T16:10:23.496Z,17.3
2022-09-11T16:11:28.056Z,17.4
2022-09-11T16:12:32.319Z,17.4
2022-09-11T16:13:37.140Z,17.4
2022-09-11T16:14:45.041Z,17.3
2022-09-11T16:15:49.339Z,17.2
2022-09-11T16:16:53.805Z,17.4
2022-09-11T16:17:58.100Z,17.4
2022-09-11T16:19:02.477Z,17.3
2022-09-11T16:20:06.900Z,17.2
2022-09-11T16:21:11.204Z,17.3
2022-09-11T16:22:15.444Z,17.2
2022-09-11T16:23:19.769Z,16.9
2022-09-11T16:24:24.080Z,17.1
2022-09-11T16:25:28.498Z,17
2022-09-11T16:26:32.846Z,17
2022-09-11T16:27:38.345Z,16.7
2022-09-11T16:28:43.325Z,16.7
2022-09-11T16:30:52.152Z,16.8
2022-09-11T16:31:56.877Z,17.2
2022-09-11T16:33:01.200Z,16.8
2022-09-11T16:34:05.873Z,16.9
2022-09-11T16:35:10.356Z,17
2022-09-11T16:36:17.215Z,16.8
2022-09-11T16:37:21.628Z,16.7
2022-09-11T16:38:25.983Z,17
2022-09-11T16:39:30.357Z,16.9
2022-09-11T16:40:34.893Z,16.8
2022-09-11T16:41:39.129Z,16.9
2022-09-11T16:42:43.460Z,16.7
2022-09-11T16:43:47.874Z,16.7
2022-09-11T16:44:52.833Z,16.7
2022-09-11T16:45:57.369Z,16.9
2022-09-11T16:47:01.953Z,16.9
2022-09-11T16:48:06.304Z,16.7
2022-09-11T16:49:11.622Z,16.8
2022-09-11T16:50:18.836Z,16.8
2022-09-11T16:51:23.104Z,16.9
2022-09-11T16:52:27.401Z,16.8
2022-09-11T16:53:31.668Z,16.9
2022-09-11T16:54:36.388Z,16.5
2022-09-11T16:55:40.964Z,16.7
2022-09-11T16:56:46.241Z,16.7
2022-09-11T16:57:49.958Z,16.8
2022-09-11T16:58:54.516Z,16.7
2022-09-11T16:59:58.989Z,16.5
2022-09-11T17:01:04.106Z,16.6
2022-09-11T17:02:08.441Z,16.9
2022-09-11T17:03:12.792Z,16.7
2022-09-11T17:04:17.720Z,16.8
2022-09-11T17:05:23.448Z,17
2022-09-11T17:06:28.076Z,17
2022-09-11T17:07:32.888Z,17.1
2022-09-11T17:08:37.672Z,17.3
2022-09-11T17:09:41.960Z,17.4
2022-09-11T17:10:49.000Z,17.6
2022-09-11T17:11:56.158Z,17.7
2022-09-11T17:13:00.392Z,17.8
2022-09-11T17:14:04.608Z,17.8
2022-09-11T17:15:09.623Z,17.8
2022-09-11T17:16:16.301Z,17.7
2022-09-11T17:17:18.615Z,17.8
2022-09-11T17:18:22.951Z,17.7
2022-09-11T17:19:27.360Z,17.7
2022-09-11T17:20:31.768Z,17.7
2022-09-11T17:21:36.311Z,17.8
2022-09-11T17:22:40.551Z,17.8
2022-09-11T17:23:44.896Z,17.7
2022-09-11T17:24:49.291Z,17.6
2022-09-11T17:25:53.903Z,17.4
2022-09-11T17:26:58.355Z,17.5
2022-09-11T17:28:02.767Z,17.5
2022-09-11T17:29:07.058Z,17.4
2022-09-11T17:30:11.258Z,17.3
2022-09-11T17:32:28.075Z,17.4
2022-09-11T17:34:35.579Z,17.1
2022-09-11T17:35:41.147Z,17.2
2022-09-11T17:36:45.706Z,17.3
2022-09-11T17:37:50.395Z,16.9
2022-09-11T17:38:55.671Z,17.1
2022-09-11T17:40:00.443Z,16.8
2022-09-11T17:41:04.987Z,16.8
2022-09-11T17:42:12.952Z,16.9
2022-09-11T17:43:14.427Z,17
2022-09-11T17:44:18.811Z,17
2022-09-11T17:45:23.767Z,17
2022-09-11T17:46:30.460Z,17
2022-09-11T17:47:36.559Z,16.9
2022-09-11T17:48:41.297Z,16.9
2022-09-11T17:49:45.752Z,16.6
2022-09-11T17:50:50.522Z,16.7
2022-09-11T17:52:00.607Z,16.6
2022-09-11T17:53:04.915Z,16.7
2022-09-11T17:54:09.167Z,17
2022-09-11T17:55:13.396Z,17.1
2022-09-11T17:56:17.831Z,16.9
2022-09-11T17:57:22.468Z,16.9
2022-09-11T17:58:27.403Z,17
2022-09-11T17:59:33.263Z,16.9
2022-09-11T18:00:37.759Z,17
2022-09-11T18:01:42.564Z,16.8
2022-09-11T18:02:47.007Z,16.9
2022-09-11T18:03:51.446Z,17
2022-09-11T18:04:56.004Z,17.1
2022-09-11T18:06:00.322Z,17
2022-09-11T18:07:04.722Z,17
2022-09-11T18:08:09.000Z,16.8
2022-09-11T18:09:14.771Z,16.8
2022-09-11T18:10:19.503Z,16.9
2022-09-11T18:11:23.731Z,16.9
2022-09-11T18:12:28.362Z,16.7
2022-09-11T18:13:32.631Z,16.6
2022-09-11T18:14:38.314Z,16.6
2022-09-11T18:15:42.567Z,16.6
2022-09-11T18:16:46.871Z,16.8
2022-09-11T18:17:51.319Z,16.7
2022-09-11T18:18:55.850Z,16.5
2022-09-11T18:21:04.043Z,16.7
2022-09-11T18:22:09.760Z,16.7
2022-09-11T18:23:19.683Z,16.6
2022-09-11T18:24:22.802Z,16.6
2022-09-11T18:25:27.230Z,16.6
2022-09-11T18:26:31.518Z,17
2022-09-11T18:27:35.930Z,16.8
2022-09-11T18:28:40.082Z,17
2022-09-11T18:29:44.347Z,16.9
2022-09-11T18:30:49.851Z,16.8
2022-09-11T18:31:53.505Z,16.7
2022-09-11T18:32:59.894Z,16.8
2022-09-11T18:34:05.270Z,17
2022-09-11T18:35:09.611Z,16.6
2022-09-11T18:36:15.890Z,16.6
2022-09-11T18:37:20.166Z,16.9
2022-09-11T18:38:27.107Z,16.9
2022-09-11T18:39:30.166Z,17
2022-09-11T18:40:35.646Z,17.1
2022-09-11T18:41:40.911Z,16.8
2022-09-11T18:42:45.371Z,17
2022-09-11T18:43:49.855Z,17
2022-09-11T18:44:57.415Z,17.1
2022-09-11T18:46:01.758Z,17.1
2022-09-11T18:47:06.082Z,17.1
2022-09-11T18:48:10.895Z,16.8
2022-09-11T18:49:15.102Z,17
2022-09-11T18:50:19.468Z,16.9
2022-09-11T18:51:23.842Z,16.4
2022-09-11T18:52:28.051Z,16.5
2022-09-11T18:53:32.474Z,16.8
2022-09-11T18:54:36.990Z,16.8
2022-09-11T18:58:00.263Z,16.8
2022-09-11T18:59:07.775Z,16.6
2022-09-11T19:01:00.223Z,16.6
2022-09-11T19:02:13.498Z,16.6
2022-09-11T19:06:07.220Z,16.7
2022-09-11T19:07:25.839Z,16.8
2022-09-11T19:09:16.773Z,16.8
2022-09-11T19:10:33.338Z,16.9
2022-09-11T19:11:39.578Z,17
2022-09-11T19:13:12.270Z,16.9
2022-09-11T19:14:23.754Z,16.9
2022-09-11T19:15:43.454Z,16.9
2022-09-11T19:17:42.189Z,16.9
2022-09-11T19:19:02.938Z,17
2022-09-11T19:20:16.474Z,17
2022-09-11T19:22:04.642Z,17
2022-09-11T19:24:19.442Z,17.1
2022-09-11T19:25:37.635Z,17.1
2022-09-11T19:26:49.802Z,16.9
2022-09-11T19:31:41.519Z,17.1
2022-09-11T19:34:47.528Z,17.1
2022-09-11T19:38:55.399Z,16.8
2022-09-11T19:42:49.227Z,16.9
2022-09-11T19:50:30.062Z,16.8
2022-09-11T19:52:44.498Z,16.5
2022-09-11T19:55:04.892Z,16.8
2022-09-11T19:57:09.539Z,17
2022-09-11T19:59:26.046Z,16.9
2022-09-11T20:03:51.291Z,16.9
2022-09-11T20:08:50.218Z,16.7
2022-09-11T20:11:02.778Z,16.7
2022-09-11T20:19:46.979Z,16.7
2022-09-11T20:20:52.906Z,16.6
2022-09-11T20:31:46.754Z,16.8
2022-09-11T20:33:30.486Z,16.6
2022-09-11T20:34:51.866Z,16.8
2022-09-11T20:38:55.875Z,16.8
2022-09-11T20:42:47.078Z,16.9
2022-09-11T20:45:27.202Z,16.8
2022-09-11T20:53:50.878Z,17
2022-09-11T20:58:21.718Z,16.9
2022-09-11T21:02:15.507Z,16.9
2022-09-11T21:07:30.531Z,16.7
2022-09-11T21:10:02.325Z,16.7
2022-09-11T21:11:45.711Z,16.5
2022-09-11T21:14:40.702Z,16.6
2022-09-11T21:34:40.589Z,16.7
2022-09-11T21:40:27.130Z,16.5
2022-09-11T21:46:49.648Z,16.8
2022-09-11T21:50:19.171Z,16.8
2022-09-11T21:54:49.638Z,16.6
2022-09-11T21:58:55.120Z,16.7
2022-09-11T22:01:32.249Z,16.6
2022-09-11T22:05:41.118Z,16.6
2022-09-11T22:09:59.867Z,16.7
2022-09-11T22:11:44.112Z,16.5
2022-09-11T22:12:50.076Z,16.6
2022-09-11T22:14:01.552Z,16.4
2022-09-11T22:15:08.863Z,16.4
2022-09-11T22:16:42.623Z,16.6
2022-09-11T22:18:09.268Z,16.4